sensor_id;sensor_type;location;lat;lon;timestamp;pressure;altitude;pressure_sealevel;temperature;humidity
58668;BME280;59852;43.086;25.634;2023-03-30T00:01:46;99545.34;;;1.41;46.95
58668;BME280;59852;43.086;25.634;2023-03-30T00:04:11;99542.50;;;1.53;47.72
58668;BME280;59852;43.086;25.634;2023-03-30T00:06:37;99537.56;;;1.42;49.11
58668;BME280;59852;43.086;25.634;2023-03-30T00:09:03;99541.78;;;1.47;49.22
58668;BME280;59852;43.086;25.634;2023-03-30T00:11:30;99531.97;;;1.24;47.63
58668;BME280;59852;43.086;25.634;2023-03-30T00:13:58;99538.06;;;1.20;47.66
58668;BME280;59852;43.086;25.634;2023-03-30T00:16:23;99536.03;;;0.92;47.50
58668;BME280;59852;43.086;25.634;2023-03-30T00:18:48;99537.69;;;1.38;46.59
58668;BME280;59852;43.086;25.634;2023-03-30T00:21:14;99533.88;;;1.54;44.96
58668;BME280;59852;43.086;25.634;2023-03-30T00:23:42;99535.97;;;1.77;45.54
58668;BME280;59852;43.086;25.634;2023-03-30T00:26:07;99532.84;;;1.23;46.62
58668;BME280;59852;43.086;25.634;2023-03-30T00:28:32;99536.53;;;1.11;47.08
58668;BME280;59852;43.086;25.634;2023-03-30T00:30:58;99537.44;;;1.07;47.11
58668;BME280;59852;43.086;25.634;2023-03-30T00:33:24;99531.06;;;1.25;46.87
58668;BME280;59852;43.086;25.634;2023-03-30T00:35:53;99536.44;;;1.14;47.06
58668;BME280;59852;43.086;25.634;2023-03-30T00:38:19;99544.50;;;0.99;46.54
58668;BME280;59852;43.086;25.634;2023-03-30T00:40:50;99541.13;;;0.95;46.37
58668;BME280;59852;43.086;25.634;2023-03-30T00:43:16;99535.78;;;1.04;46.63
58668;BME280;59852;43.086;25.634;2023-03-30T00:45:41;99539.75;;;1.21;46.52
58668;BME280;59852;43.086;25.634;2023-03-30T00:48:08;99542.19;;;0.85;48.46
58668;BME280;59852;43.086;25.634;2023-03-30T00:50:39;99542.88;;;0.93;46.85
58668;BME280;59852;43.086;25.634;2023-03-30T00:53:11;99536.75;;;1.00;47.76
58668;BME280;59852;43.086;25.634;2023-03-30T00:55:40;99534.28;;;0.94;48.04
58668;BME280;59852;43.086;25.634;2023-03-30T00:58:06;99540.34;;;0.92;48.08
58668;BME280;59852;43.086;25.634;2023-03-30T01:00:33;99545.28;;;1.02;47.51
58668;BME280;59852;43.086;25.634;2023-03-30T01:03:03;99539.81;;;1.19;46.66
58668;BME280;59852;43.086;25.634;2023-03-30T01:05:30;99543.44;;;1.07;47.25
58668;BME280;59852;43.086;25.634;2023-03-30T01:07:56;99536.81;;;0.96;47.94
58668;BME280;59852;43.086;25.634;2023-03-30T01:10:22;99539.41;;;0.96;48.26
58668;BME280;59852;43.086;25.634;2023-03-30T01:12:48;99538.91;;;1.20;48.25
58668;BME280;59852;43.086;25.634;2023-03-30T01:15:14;99552.34;;;0.93;52.46
58668;BME280;59852;43.086;25.634;2023-03-30T01:23:08;99558.44;;;0.41;56.51
58668;BME280;59852;43.086;25.634;2023-03-30T01:35:41;99556.41;;;0.07;58.40
58668;BME280;59852;43.086;25.634;2023-03-30T01:43:15;99556.78;;;0.37;57.70
58668;BME280;59852;43.086;25.634;2023-03-30T01:45:54;99559.31;;;0.40;57.62
58668;BME280;59852;43.086;25.634;2023-03-30T01:48:27;99554.03;;;0.47;57.95
58668;BME280;59852;43.086;25.634;2023-03-30T01:51:02;99567.25;;;0.26;57.59
58668;BME280;59852;43.086;25.634;2023-03-30T01:54:13;99562.72;;;0.42;56.69
58668;BME280;59852;43.086;25.634;2023-03-30T01:56:38;99555.63;;;0.54;58.23
58668;BME280;59852;43.086;25.634;2023-03-30T01:59:10;99560.19;;;0.37;56.79
58668;BME280;59852;43.086;25.634;2023-03-30T02:01:36;99561.91;;;0.40;56.76
58668;BME280;59852;43.086;25.634;2023-03-30T02:04:03;99557.41;;;0.51;55.42
58668;BME280;59852;43.086;25.634;2023-03-30T02:09:09;99558.69;;;0.75;55.54
58668;BME280;59852;43.086;25.634;2023-03-30T02:11:35;99566.34;;;0.30;56.53
58668;BME280;59852;43.086;25.634;2023-03-30T02:14:01;99566.03;;;-0.04;58.13
58668;BME280;59852;43.086;25.634;2023-03-30T02:16:39;99574.38;;;0.09;57.38
58668;BME280;59852;43.086;25.634;2023-03-30T02:19:08;99569.00;;;0.24;57.99
58668;BME280;59852;43.086;25.634;2023-03-30T02:21:33;99571.47;;;0.32;57.94
58668;BME280;59852;43.086;25.634;2023-03-30T02:23:59;99572.66;;;0.11;56.68
58668;BME280;59852;43.086;25.634;2023-03-30T02:26:27;99570.34;;;-0.06;56.91
58668;BME280;59852;43.086;25.634;2023-03-30T02:28:54;99579.84;;;-0.10;56.83
58668;BME280;59852;43.086;25.634;2023-03-30T02:31:19;99581.81;;;-0.28;60.65
58668;BME280;59852;43.086;25.634;2023-03-30T02:39:33;99582.66;;;-0.26;61.04
58668;BME280;59852;43.086;25.634;2023-03-30T02:51:53;99592.34;;;-0.47;61.23
58668;BME280;59852;43.086;25.634;2023-03-30T03:02:00;99611.19;;;-0.46;58.51
58668;BME280;59852;43.086;25.634;2023-03-30T03:04:28;99609.97;;;-0.21;58.79
58668;BME280;59852;43.086;25.634;2023-03-30T03:06:58;99610.00;;;-0.22;59.45
58668;BME280;59852;43.086;25.634;2023-03-30T03:09:26;99615.22;;;-0.27;56.43
58668;BME280;59852;43.086;25.634;2023-03-30T03:11:52;99608.94;;;-0.08;55.93
58668;BME280;59852;43.086;25.634;2023-03-30T03:14:18;99613.19;;;-0.05;56.65
58668;BME280;59852;43.086;25.634;2023-03-30T03:16:43;99621.25;;;-0.31;57.14
58668;BME280;59852;43.086;25.634;2023-03-30T03:19:09;99618.72;;;-0.34;57.06
58668;BME280;59852;43.086;25.634;2023-03-30T03:21:35;99616.81;;;-0.18;57.89
58668;BME280;59852;43.086;25.634;2023-03-30T03:24:00;99621.88;;;-0.14;58.03
58668;BME280;59852;43.086;25.634;2023-03-30T03:26:26;99619.66;;;-0.40;58.77
58668;BME280;59852;43.086;25.634;2023-03-30T03:28:51;99622.59;;;-0.70;61.03
58668;BME280;59852;43.086;25.634;2023-03-30T03:31:16;99618.81;;;-0.40;59.22
58668;BME280;59852;43.086;25.634;2023-03-30T03:33:42;99632.53;;;-1.20;60.77
58668;BME280;59852;43.086;25.634;2023-03-30T03:36:07;99627.53;;;-0.53;59.75
58668;BME280;59852;43.086;25.634;2023-03-30T03:38:33;99627.44;;;-0.44;58.46
58668;BME280;59852;43.086;25.634;2023-03-30T03:40:58;99631.31;;;-0.82;59.41
58668;BME280;59852;43.086;25.634;2023-03-30T03:43:24;99629.19;;;-0.46;58.82
58668;BME280;59852;43.086;25.634;2023-03-30T03:45:50;99623.31;;;-0.56;59.07
58668;BME280;59852;43.086;25.634;2023-03-30T03:48:17;99629.56;;;-0.78;60.23
58668;BME280;59852;43.086;25.634;2023-03-30T03:50:42;99627.75;;;-0.72;59.93
58668;BME280;59852;43.086;25.634;2023-03-30T03:53:08;99629.34;;;-0.62;60.08
58668;BME280;59852;43.086;25.634;2023-03-30T03:55:34;99632.31;;;-0.24;59.12
58668;BME280;59852;43.086;25.634;2023-03-30T03:58:03;99639.06;;;-0.85;60.26
58668;BME280;59852;43.086;25.634;2023-03-30T04:00:29;99647.44;;;-0.71;58.78
58668;BME280;59852;43.086;25.634;2023-03-30T04:02:54;99643.78;;;-0.51;57.81
58668;BME280;59852;43.086;25.634;2023-03-30T04:05:20;99642.66;;;-0.29;57.41
58668;BME280;59852;43.086;25.634;2023-03-30T04:07:45;99638.38;;;-0.28;57.52
58668;BME280;59852;43.086;25.634;2023-03-30T04:10:11;99646.22;;;-0.38;55.86
58668;BME280;59852;43.086;25.634;2023-03-30T04:12:37;99640.69;;;-0.09;55.61
58668;BME280;59852;43.086;25.634;2023-03-30T04:15:03;99659.31;;;-0.61;56.36
58668;BME280;59852;43.086;25.634;2023-03-30T04:17:28;99654.25;;;-0.65;58.67
58668;BME280;59852;43.086;25.634;2023-03-30T04:19:57;99655.22;;;-0.77;58.84
58668;BME280;59852;43.086;25.634;2023-03-30T04:22:23;99656.72;;;-0.59;59.85
58668;BME280;59852;43.086;25.634;2023-03-30T04:24:50;99657.63;;;-0.63;59.98
58668;BME280;59852;43.086;25.634;2023-03-30T04:27:15;99662.63;;;-0.51;59.75
58668;BME280;59852;43.086;25.634;2023-03-30T04:29:43;99649.50;;;-0.28;57.61
58668;BME280;59852;43.086;25.634;2023-03-30T04:32:11;99657.97;;;-0.21;58.03
58668;BME280;59852;43.086;25.634;2023-03-30T04:34:37;99660.38;;;-0.08;60.15
58668;BME280;59852;43.086;25.634;2023-03-30T04:37:06;99663.94;;;-0.18;61.09
58668;BME280;59852;43.086;25.634;2023-03-30T04:39:32;99667.13;;;-0.01;61.43
58668;BME280;59852;43.086;25.634;2023-03-30T04:41:57;99667.75;;;0.15;61.18
58668;BME280;59852;43.086;25.634;2023-03-30T04:44:26;99681.97;;;0.39;60.50
58668;BME280;59852;43.086;25.634;2023-03-30T04:46:52;99680.44;;;0.27;60.38
58668;BME280;59852;43.086;25.634;2023-03-30T04:49:18;99682.13;;;0.30;60.74
58668;BME280;59852;43.086;25.634;2023-03-30T04:51:43;99683.91;;;0.25;60.81
58668;BME280;59852;43.086;25.634;2023-03-30T04:54:09;99691.28;;;0.49;59.56
58668;BME280;59852;43.086;25.634;2023-03-30T04:56:35;99691.06;;;0.63;58.96
58668;BME280;59852;43.086;25.634;2023-03-30T04:59:00;99685.13;;;0.58;59.25
58668;BME280;59852;43.086;25.634;2023-03-30T05:01:25;99684.09;;;0.68;59.21
58668;BME280;59852;43.086;25.634;2023-03-30T05:03:51;99688.22;;;0.80;58.48
58668;BME280;59852;43.086;25.634;2023-03-30T05:06:16;99688.69;;;1.02;57.80
58668;BME280;59852;43.086;25.634;2023-03-30T05:08:41;99695.69;;;0.94;57.21
58668;BME280;59852;43.086;25.634;2023-03-30T05:11:07;99695.69;;;0.94;57.17
58668;BME280;59852;43.086;25.634;2023-03-30T05:13:32;99702.09;;;1.21;56.08
58668;BME280;59852;43.086;25.634;2023-03-30T05:15:57;99698.78;;;1.14;56.14
58668;BME280;59852;43.086;25.634;2023-03-30T05:18:23;99703.19;;;1.97;54.49
58668;BME280;59852;43.086;25.634;2023-03-30T05:20:48;99696.06;;;2.08;53.31
58668;BME280;59852;43.086;25.634;2023-03-30T05:23:13;99693.31;;;2.88;51.39
58668;BME280;59852;43.086;25.634;2023-03-30T05:25:42;99704.09;;;3.06;50.60
58668;BME280;59852;43.086;25.634;2023-03-30T05:28:10;99697.16;;;2.72;50.97
58668;BME280;59852;43.086;25.634;2023-03-30T05:30:36;99703.44;;;2.23;52.49
58668;BME280;59852;43.086;25.634;2023-03-30T05:33:01;99701.59;;;2.30;53.89
58668;BME280;59852;43.086;25.634;2023-03-30T05:35:26;99703.22;;;2.71;53.04
58668;BME280;59852;43.086;25.634;2023-03-30T05:37:52;99706.06;;;2.95;52.98
58668;BME280;59852;43.086;25.634;2023-03-30T05:40:19;99706.13;;;2.93;51.73
58668;BME280;59852;43.086;25.634;2023-03-30T05:42:44;99707.34;;;2.78;52.70
58668;BME280;59852;43.086;25.634;2023-03-30T05:45:10;99713.53;;;2.71;53.34
58668;BME280;59852;43.086;25.634;2023-03-30T05:47:35;99711.22;;;2.61;52.28
58668;BME280;59852;43.086;25.634;2023-03-30T05:50:01;99715.41;;;2.66;53.40
58668;BME280;59852;43.086;25.634;2023-03-30T05:52:26;99714.09;;;2.48;52.62
58668;BME280;59852;43.086;25.634;2023-03-30T05:54:52;99715.78;;;2.86;52.14
58668;BME280;59852;43.086;25.634;2023-03-30T05:57:17;99711.19;;;2.62;52.46
58668;BME280;59852;43.086;25.634;2023-03-30T05:59:43;99705.59;;;2.43;51.04
58668;BME280;59852;43.086;25.634;2023-03-30T06:02:09;99716.78;;;3.15;51.41
58668;BME280;59852;43.086;25.634;2023-03-30T06:04:34;99728.78;;;3.17;51.92
58668;BME280;59852;43.086;25.634;2023-03-30T06:07:00;99723.22;;;2.99;50.82
58668;BME280;59852;43.086;25.634;2023-03-30T06:09:25;99714.38;;;2.35;51.67
58668;BME280;59852;43.086;25.634;2023-03-30T06:11:51;99722.38;;;3.31;50.72
58668;BME280;59852;43.086;25.634;2023-03-30T06:14:16;99719.38;;;3.15;49.88
58668;BME280;59852;43.086;25.634;2023-03-30T06:16:42;99732.66;;;2.64;50.46
58668;BME280;59852;43.086;25.634;2023-03-30T06:19:07;99736.41;;;2.88;49.98
58668;BME280;59852;43.086;25.634;2023-03-30T06:21:32;99736.66;;;3.11;49.08
58668;BME280;59852;43.086;25.634;2023-03-30T06:23:58;99733.66;;;3.28;48.98
58668;BME280;59852;43.086;25.634;2023-03-30T06:26:23;99735.63;;;3.51;49.77
58668;BME280;59852;43.086;25.634;2023-03-30T06:28:49;99734.75;;;3.20;48.78
58668;BME280;59852;43.086;25.634;2023-03-30T06:31:14;99737.50;;;3.46;49.01
58668;BME280;59852;43.086;25.634;2023-03-30T06:33:40;99742.16;;;2.99;49.56
58668;BME280;59852;43.086;25.634;2023-03-30T06:36:08;99744.19;;;3.55;49.15
58668;BME280;59852;43.086;25.634;2023-03-30T06:38:33;99742.97;;;3.34;48.25
58668;BME280;59852;43.086;25.634;2023-03-30T06:41:02;99736.00;;;2.69;48.62
58668;BME280;59852;43.086;25.634;2023-03-30T06:43:28;99746.69;;;3.58;48.40
58668;BME280;59852;43.086;25.634;2023-03-30T06:45:54;99741.75;;;3.80;47.02
58668;BME280;59852;43.086;25.634;2023-03-30T06:48:20;99734.81;;;4.11;46.94
58668;BME280;59852;43.086;25.634;2023-03-30T06:50:48;99728.72;;;4.14;47.98
58668;BME280;59852;43.086;25.634;2023-03-30T06:53:13;99735.97;;;4.30;46.44
58668;BME280;59852;43.086;25.634;2023-03-30T06:55:39;99737.19;;;4.19;46.61
58668;BME280;59852;43.086;25.634;2023-03-30T06:58:04;99740.03;;;3.80;45.40
58668;BME280;59852;43.086;25.634;2023-03-30T07:00:30;99732.00;;;4.19;45.91
58668;BME280;59852;43.086;25.634;2023-03-30T07:02:55;99734.47;;;4.23;45.05
58668;BME280;59852;43.086;25.634;2023-03-30T07:05:21;99735.69;;;4.40;44.92
58668;BME280;59852;43.086;25.634;2023-03-30T07:07:49;99737.59;;;4.63;44.92
58668;BME280;59852;43.086;25.634;2023-03-30T07:10:16;99735.03;;;4.61;45.43
58668;BME280;59852;43.086;25.634;2023-03-30T07:12:42;99741.50;;;4.48;43.27
58668;BME280;59852;43.086;25.634;2023-03-30T07:15:07;99739.56;;;4.54;43.26
58668;BME280;59852;43.086;25.634;2023-03-30T07:17:33;99737.88;;;4.53;43.90
58668;BME280;59852;43.086;25.634;2023-03-30T07:19:59;99736.69;;;4.90;46.03
58668;BME280;59852;43.086;25.634;2023-03-30T07:22:24;99734.50;;;4.78;43.59
58668;BME280;59852;43.086;25.634;2023-03-30T07:24:50;99737.00;;;5.07;44.78
58668;BME280;59852;43.086;25.634;2023-03-30T07:27:15;99736.63;;;5.44;43.13
58668;BME280;59852;43.086;25.634;2023-03-30T07:29:41;99737.72;;;5.37;43.57
58668;BME280;59852;43.086;25.634;2023-03-30T07:32:06;99733.25;;;4.63;42.85
58668;BME280;59852;43.086;25.634;2023-03-30T07:34:32;99729.56;;;5.48;43.19
58668;BME280;59852;43.086;25.634;2023-03-30T07:36:57;99733.34;;;5.88;43.46
58668;BME280;59852;43.086;25.634;2023-03-30T07:39:23;99729.25;;;5.57;41.07
58668;BME280;59852;43.086;25.634;2023-03-30T07:41:48;99720.84;;;5.99;41.07
58668;BME280;59852;43.086;25.634;2023-03-30T07:44:14;99737.84;;;6.53;42.07
58668;BME280;59852;43.086;25.634;2023-03-30T07:46:39;99728.72;;;6.65;41.58
58668;BME280;59852;43.086;25.634;2023-03-30T07:49:05;99722.88;;;6.59;39.59
58668;BME280;59852;43.086;25.634;2023-03-30T07:51:30;99724.13;;;6.71;41.50
58668;BME280;59852;43.086;25.634;2023-03-30T07:53:56;99718.88;;;7.15;40.08
58668;BME280;59852;43.086;25.634;2023-03-30T07:56:21;99705.19;;;6.68;37.71
58668;BME280;59852;43.086;25.634;2023-03-30T07:58:47;99701.69;;;6.47;38.32
58668;BME280;59852;43.086;25.634;2023-03-30T08:01:12;99699.75;;;6.74;37.32
58668;BME280;59852;43.086;25.634;2023-03-30T08:03:38;99702.47;;;7.33;37.26
58668;BME280;59852;43.086;25.634;2023-03-30T08:06:03;99705.97;;;7.53;36.72
58668;BME280;59852;43.086;25.634;2023-03-30T08:08:30;99710.72;;;7.02;36.15
58668;BME280;59852;43.086;25.634;2023-03-30T08:10:56;99700.34;;;7.82;36.44
58668;BME280;59852;43.086;25.634;2023-03-30T08:13:21;99698.84;;;7.58;35.33
58668;BME280;59852;43.086;25.634;2023-03-30T08:15:46;99692.63;;;7.60;35.35
58668;BME280;59852;43.086;25.634;2023-03-30T08:18:12;99694.91;;;8.05;36.13
58668;BME280;59852;43.086;25.634;2023-03-30T08:20:38;99689.00;;;7.83;34.57
58668;BME280;59852;43.086;25.634;2023-03-30T08:23:04;99685.41;;;8.04;34.54
58668;BME280;59852;43.086;25.634;2023-03-30T08:25:30;99695.41;;;8.32;34.87
58668;BME280;59852;43.086;25.634;2023-03-30T08:27:56;99695.72;;;7.50;32.47
58668;BME280;59852;43.086;25.634;2023-03-30T08:30:22;99682.09;;;7.82;33.79
58668;BME280;59852;43.086;25.634;2023-03-30T08:32:47;99687.69;;;8.12;32.55
58668;BME280;59852;43.086;25.634;2023-03-30T08:35:13;99680.72;;;8.13;33.14
58668;BME280;59852;43.086;25.634;2023-03-30T08:37:38;99667.25;;;8.22;32.24
58668;BME280;59852;43.086;25.634;2023-03-30T08:40:05;99670.91;;;8.55;33.47
58668;BME280;59852;43.086;25.634;2023-03-30T08:45:07;99668.38;;;8.71;29.64
58668;BME280;59852;43.086;25.634;2023-03-30T08:47:34;99667.19;;;8.04;30.43
58668;BME280;59852;43.086;25.634;2023-03-30T08:50:05;99660.66;;;7.77;31.52
58668;BME280;59852;43.086;25.634;2023-03-30T08:52:30;99664.19;;;8.69;31.43
58668;BME280;59852;43.086;25.634;2023-03-30T08:54:57;99662.97;;;8.76;30.80
58668;BME280;59852;43.086;25.634;2023-03-30T09:02:33;99651.09;;;9.38;31.10
58668;BME280;59852;43.086;25.634;2023-03-30T09:07:51;99634.53;;;9.22;32.21
58668;BME280;59852;43.086;25.634;2023-03-30T09:10:20;99638.41;;;9.14;30.70
58668;BME280;59852;43.086;25.634;2023-03-30T09:12:50;99638.41;;;8.97;31.56
58668;BME280;59852;43.086;25.634;2023-03-30T09:15:27;99636.03;;;9.43;31.49
58668;BME280;59852;43.086;25.634;2023-03-30T09:17:59;99633.72;;;9.54;30.27
58668;BME280;59852;43.086;25.634;2023-03-30T09:20:29;99619.09;;;9.34;30.30
58668;BME280;59852;43.086;25.634;2023-03-30T09:22:58;99617.00;;;9.41;31.34
58668;BME280;59852;43.086;25.634;2023-03-30T09:30:41;99611.75;;;9.74;30.44
58668;BME280;59852;43.086;25.634;2023-03-30T09:33:26;99614.53;;;10.02;28.98
58668;BME280;59852;43.086;25.634;2023-03-30T09:36:02;99615.03;;;9.77;28.68
58668;BME280;59852;43.086;25.634;2023-03-30T09:38:31;99608.31;;;9.89;29.53
58668;BME280;59852;43.086;25.634;2023-03-30T09:43:40;99600.97;;;9.96;27.67
58668;BME280;59852;43.086;25.634;2023-03-30T09:46:11;99600.63;;;9.70;28.67
58668;BME280;59852;43.086;25.634;2023-03-30T09:48:40;99598.84;;;9.55;28.94
58668;BME280;59852;43.086;25.634;2023-03-30T09:51:19;99594.63;;;9.68;28.29
58668;BME280;59852;43.086;25.634;2023-03-30T09:53:46;99586.84;;;9.35;28.44
58668;BME280;59852;43.086;25.634;2023-03-30T09:56:17;99584.28;;;9.34;27.91
58668;BME280;59852;43.086;25.634;2023-03-30T09:58:43;99582.78;;;10.26;28.92
58668;BME280;59852;43.086;25.634;2023-03-30T10:01:12;99583.41;;;9.51;25.85
58668;BME280;59852;43.086;25.634;2023-03-30T10:03:40;99585.84;;;9.05;27.00
58668;BME280;59852;43.086;25.634;2023-03-30T10:06:06;99583.94;;;9.89;26.80
58668;BME280;59852;43.086;25.634;2023-03-30T10:08:35;99574.94;;;10.26;26.71
58668;BME280;59852;43.086;25.634;2023-03-30T10:11:01;99569.03;;;9.91;27.52
58668;BME280;59852;43.086;25.634;2023-03-30T10:13:31;99568.44;;;10.33;26.57
58668;BME280;59852;43.086;25.634;2023-03-30T10:15:59;99563.81;;;10.52;25.72
58668;BME280;59852;43.086;25.634;2023-03-30T10:18:29;99558.34;;;10.41;25.12
58668;BME280;59852;43.086;25.634;2023-03-30T10:21:00;99551.22;;;10.13;25.30
58668;BME280;59852;43.086;25.634;2023-03-30T10:23:30;99549.69;;;10.09;25.07
58668;BME280;59852;43.086;25.634;2023-03-30T10:25:59;99547.59;;;10.16;26.24
58668;BME280;59852;43.086;25.634;2023-03-30T10:28:27;99551.31;;;10.27;26.04
58668;BME280;59852;43.086;25.634;2023-03-30T10:31:06;99537.88;;;10.63;24.63
58668;BME280;59852;43.086;25.634;2023-03-30T10:33:37;99536.50;;;11.01;24.67
58668;BME280;59852;43.086;25.634;2023-03-30T10:36:03;99538.56;;;11.10;25.56
58668;BME280;59852;43.086;25.634;2023-03-30T10:38:30;99533.28;;;10.53;24.26
58668;BME280;59852;43.086;25.634;2023-03-30T10:41:18;99537.84;;;10.94;24.49
58668;BME280;59852;43.086;25.634;2023-03-30T10:43:45;99538.47;;;10.83;22.55
58668;BME280;59852;43.086;25.634;2023-03-30T10:46:17;99538.88;;;10.61;21.64
58668;BME280;59852;43.086;25.634;2023-03-30T10:49:02;99531.72;;;10.34;21.96
58668;BME280;59852;43.086;25.634;2023-03-30T10:51:37;99522.22;;;11.06;23.90
58668;BME280;59852;43.086;25.634;2023-03-30T10:54:08;99516.78;;;11.09;23.42
58668;BME280;59852;43.086;25.634;2023-03-30T10:56:46;99513.53;;;10.33;22.20
58668;BME280;59852;43.086;25.634;2023-03-30T11:01:50;99503.22;;;10.30;21.58
58668;BME280;59852;43.086;25.634;2023-03-30T11:04:27;99496.78;;;11.08;21.92
58668;BME280;59852;43.086;25.634;2023-03-30T11:06:56;99490.66;;;11.51;23.17
58668;BME280;59852;43.086;25.634;2023-03-30T11:09:24;99487.34;;;10.63;22.24
58668;BME280;59852;43.086;25.634;2023-03-30T11:11:54;99484.53;;;10.95;21.32
58668;BME280;59852;43.086;25.634;2023-03-30T11:14:22;99474.75;;;11.39;22.44
58668;BME280;59852;43.086;25.634;2023-03-30T11:16:54;99479.00;;;10.99;22.64
58668;BME280;59852;43.086;25.634;2023-03-30T11:19:25;99463.53;;;11.52;21.38
58668;BME280;59852;43.086;25.634;2023-03-30T11:24:29;99466.31;;;11.48;21.74
58668;BME280;59852;43.086;25.634;2023-03-30T11:26:59;99475.84;;;11.64;20.62
58668;BME280;59852;43.086;25.634;2023-03-30T11:37:12;99452.81;;;11.42;20.06
58668;BME280;59852;43.086;25.634;2023-03-30T11:39:44;99446.00;;;11.11;19.24
58668;BME280;59852;43.086;25.634;2023-03-30T11:44:46;99438.47;;;10.92;19.25
58668;BME280;59852;43.086;25.634;2023-03-30T11:52:14;99428.63;;;11.51;19.85
58668;BME280;59852;43.086;25.634;2023-03-30T12:05:08;99408.47;;;11.93;20.51
58668;BME280;59852;43.086;25.634;2023-03-30T12:10:11;99402.38;;;11.92;19.65
58668;BME280;59852;43.086;25.634;2023-03-30T12:12:39;99397.63;;;11.58;18.99
58668;BME280;59852;43.086;25.634;2023-03-30T12:15:14;99400.72;;;11.77;20.25
58668;BME280;59852;43.086;25.634;2023-03-30T12:17:53;99401.50;;;12.70;19.31
58668;BME280;59852;43.086;25.634;2023-03-30T12:20:31;99395.94;;;12.49;18.62
58668;BME280;59852;43.086;25.634;2023-03-30T12:28:07;99388.25;;;12.33;18.63
58668;BME280;59852;43.086;25.634;2023-03-30T12:33:12;99380.28;;;13.46;19.18
58668;BME280;59852;43.086;25.634;2023-03-30T12:38:18;99365.34;;;12.73;17.65
58668;BME280;59852;43.086;25.634;2023-03-30T12:40:44;99365.38;;;12.48;18.40
58668;BME280;59852;43.086;25.634;2023-03-30T12:43:17;99365.88;;;12.66;18.46
58668;BME280;59852;43.086;25.634;2023-03-30T12:51:26;99347.78;;;12.12;18.90
58668;BME280;59852;43.086;25.634;2023-03-30T13:04:05;99315.78;;;11.67;19.71
58668;BME280;59852;43.086;25.634;2023-03-30T13:06:34;99317.03;;;12.14;19.61
58668;BME280;59852;43.086;25.634;2023-03-30T13:27:09;99296.78;;;12.03;20.79
58668;BME280;59852;43.086;25.634;2023-03-30T13:29:35;99283.88;;;12.13;20.58
58668;BME280;59852;43.086;25.634;2023-03-30T13:40:08;99273.88;;;12.43;20.49
58668;BME280;59852;43.086;25.634;2023-03-30T13:45:08;99271.22;;;12.69;19.58
58668;BME280;59852;43.086;25.634;2023-03-30T13:48:29;99266.03;;;12.67;21.28
58668;BME280;59852;43.086;25.634;2023-03-30T13:50:27;99268.22;;;12.49;22.03
58668;BME280;59852;43.086;25.634;2023-03-30T13:52:54;99264.25;;;12.18;20.23
58668;BME280;59852;43.086;25.634;2023-03-30T13:55:29;99248.38;;;12.45;20.54
58668;BME280;59852;43.086;25.634;2023-03-30T13:57:59;99247.56;;;12.32;20.31
58668;BME280;59852;43.086;25.634;2023-03-30T14:05:53;99237.38;;;12.40;20.29
58668;BME280;59852;43.086;25.634;2023-03-30T14:08:19;99244.41;;;12.27;20.50
58668;BME280;59852;43.086;25.634;2023-03-30T14:10:47;99246.00;;;12.29;22.24
58668;BME280;59852;43.086;25.634;2023-03-30T14:13:14;99236.69;;;12.13;21.42
58668;BME280;59852;43.086;25.634;2023-03-30T14:15:40;99232.38;;;11.99;21.78
58668;BME280;59852;43.086;25.634;2023-03-30T14:18:07;99233.63;;;11.68;21.15
58668;BME280;59852;43.086;25.634;2023-03-30T14:20:52;99229.28;;;11.81;22.24
58668;BME280;59852;43.086;25.634;2023-03-30T14:23:41;99227.88;;;11.63;21.11
58668;BME280;59852;43.086;25.634;2023-03-30T14:26:27;99225.56;;;11.71;20.96
58668;BME280;59852;43.086;25.634;2023-03-30T14:28:58;99224.13;;;11.80;21.76
58668;BME280;59852;43.086;25.634;2023-03-30T14:31:26;99221.47;;;11.54;21.33
58668;BME280;59852;43.086;25.634;2023-03-30T14:33:52;99219.34;;;11.59;21.51
58668;BME280;59852;43.086;25.634;2023-03-30T14:36:17;99210.16;;;11.66;21.30
58668;BME280;59852;43.086;25.634;2023-03-30T14:38:44;99213.19;;;11.73;22.72
58668;BME280;59852;43.086;25.634;2023-03-30T14:41:16;99210.78;;;11.70;21.24
58668;BME280;59852;43.086;25.634;2023-03-30T14:43:44;99215.38;;;11.79;21.98
58668;BME280;59852;43.086;25.634;2023-03-30T14:46:14;99206.06;;;11.88;23.01
58668;BME280;59852;43.086;25.634;2023-03-30T14:48:40;99210.78;;;11.70;22.63
58668;BME280;59852;43.086;25.634;2023-03-30T14:51:26;99212.16;;;11.63;21.94
58668;BME280;59852;43.086;25.634;2023-03-30T14:53:51;99207.31;;;11.57;23.19
58668;BME280;59852;43.086;25.634;2023-03-30T14:56:17;99205.88;;;11.53;22.39
58668;BME280;59852;43.086;25.634;2023-03-30T14:58:44;99216.00;;;11.44;22.16
58668;BME280;59852;43.086;25.634;2023-03-30T15:01:11;99203.13;;;11.41;23.21
58668;BME280;59852;43.086;25.634;2023-03-30T15:03:38;99197.78;;;11.43;22.62
58668;BME280;59852;43.086;25.634;2023-03-30T15:06:05;99203.25;;;11.53;23.31
58668;BME280;59852;43.086;25.634;2023-03-30T15:08:38;99203.66;;;11.46;24.10
58668;BME280;59852;43.086;25.634;2023-03-30T15:11:08;99206.38;;;11.45;23.86
58668;BME280;59852;43.086;25.634;2023-03-30T15:13:37;99205.75;;;11.41;24.83
58668;BME280;59852;43.086;25.634;2023-03-30T15:16:04;99205.59;;;11.30;23.19
58668;BME280;59852;43.086;25.634;2023-03-30T15:18:30;99205.31;;;11.35;23.95
58668;BME280;59852;43.086;25.634;2023-03-30T15:20:57;99203.03;;;11.43;23.96
58668;BME280;59852;43.086;25.634;2023-03-30T15:23:23;99204.75;;;11.30;22.99
58668;BME280;59852;43.086;25.634;2023-03-30T15:25:49;99198.91;;;11.26;23.80
58668;BME280;59852;43.086;25.634;2023-03-30T15:28:17;99188.16;;;11.31;25.16
58668;BME280;59852;43.086;25.634;2023-03-30T15:30:43;99192.63;;;11.29;25.59
58668;BME280;59852;43.086;25.634;2023-03-30T15:33:19;99188.53;;;11.25;23.57
58668;BME280;59852;43.086;25.634;2023-03-30T15:35:45;99181.75;;;11.22;23.53
58668;BME280;59852;43.086;25.634;2023-03-30T15:38:14;99189.25;;;11.14;25.23